DHBMD EGYP-EGYP
Flight info
| Callsign | DHBMD |
|---|---|
| Flight time | N/A |
| Altitude | 6000 |
| Route | 542824S365095W |
| Aircraft | A139/L-SFG/C |
Departure
| Time | 2026-05-05 14:28 |
|---|---|
| Airport | Mount Pleasant Airport / RAF Mount Pleasant (EGYP) |
Arrival
| Time | N/A |
|---|---|
| Airport | Mount Pleasant Airport / RAF Mount Pleasant (EGYP) |
| Time | Latitude | Longitude | Altitude | Speed | Heading |
|---|---|---|---|---|---|
| 2026-05-05 14:26 | -51.82164 | -58.47617 | 261 ft | 0 kts | 284° |
| 2026-05-05 14:28 | -51.82140 | -58.47639 | 332 ft | 19 kts | 356° |
| 2026-05-05 14:28 | -51.82050 | -58.47435 | 681 ft | 32 kts | 155° |
| 2026-05-05 14:28 | -51.82398 | -58.47095 | 1062 ft | 91 kts | 150° |
| 2026-05-05 14:28 | -51.83001 | -58.46249 | 1426 ft | 128 kts | 130° |
| 2026-05-05 14:29 | -51.83248 | -58.45024 | 1947 ft | 106 kts | 112° |
| 2026-05-05 14:29 | -51.83506 | -58.43644 | 1891 ft | 140 kts | 114° |
| 2026-05-05 14:29 | -51.83785 | -58.42083 | 2186 ft | 146 kts | 113° |
| 2026-05-05 14:29 | -51.84098 | -58.40441 | 2513 ft | 145 kts | 112° |
| 2026-05-05 14:30 | -51.84113 | -58.38688 | 2730 ft | 158 kts | 79° |
| 2026-05-05 14:30 | -51.83500 | -58.37192 | 3075 ft | 156 kts | 54° |
| 2026-05-05 14:30 | -51.83229 | -58.35503 | 3300 ft | 150 kts | 101° |
| 2026-05-05 14:30 | -51.83561 | -58.34017 | 3569 ft | 145 kts | 116° |
| 2026-05-05 14:31 | -51.83935 | -58.32525 | 3806 ft | 147 kts | 116° |
| 2026-05-05 14:31 | -51.84291 | -58.30941 | 4073 ft | 147 kts | 115° |
| 2026-05-05 14:31 | -51.84637 | -58.29388 | 4326 ft | 148 kts | 115° |
| 2026-05-05 14:31 | -51.84977 | -58.27871 | 4575 ft | 148 kts | 115° |
| 2026-05-05 14:32 | -51.85315 | -58.26365 | 4825 ft | 149 kts | 115° |
| 2026-05-05 14:32 | -51.85638 | -58.24921 | 5058 ft | 149 kts | 116° |
| 2026-05-05 14:32 | -51.85992 | -58.23355 | 5316 ft | 150 kts | 116° |
| 2026-05-05 14:32 | -51.86344 | -58.21791 | 5579 ft | 150 kts | 116° |
| 2026-05-05 14:33 | -51.86663 | -58.20373 | 5813 ft | 150 kts | 116° |
| 2026-05-05 14:33 | -51.86980 | -58.18944 | 6011 ft | 151 kts | 117° |
| 2026-05-05 14:33 | -51.87344 | -58.17331 | 6062 ft | 151 kts | 117° |
| 2026-05-05 14:33 | -51.87694 | -58.15762 | 6037 ft | 152 kts | 116° |
| 2026-05-05 14:34 | -51.88019 | -58.14305 | 6021 ft | 152 kts | 116° |
| 2026-05-05 14:34 | -51.88347 | -58.12837 | 6010 ft | 152 kts | 116° |
| 2026-05-05 14:34 | -51.88698 | -58.11269 | 5999 ft | 152 kts | 115° |
| 2026-05-05 14:34 | -51.89053 | -58.09667 | 5988 ft | 152 kts | 115° |
| 2026-05-05 14:35 | -51.89389 | -58.08156 | 5981 ft | 152 kts | 115° |
| 2026-05-05 14:35 | -51.89724 | -58.06646 | 5989 ft | 152 kts | 115° |
| 2026-05-05 14:35 | -51.90072 | -58.05088 | 5993 ft | 153 kts | 115° |
| 2026-05-05 14:35 | -51.90423 | -58.03513 | 5999 ft | 152 kts | 115° |
| 2026-05-05 14:36 | -51.90753 | -58.02032 | 6003 ft | 152 kts | 115° |
| 2026-05-05 14:36 | -51.91085 | -58.00538 | 6007 ft | 152 kts | 115° |
| 2026-05-05 14:36 | -51.91423 | -57.99012 | 6007 ft | 152 kts | 115° |
| 2026-05-05 14:36 | -51.91785 | -57.97381 | 6001 ft | 152 kts | 115° |
| 2026-05-05 14:37 | -51.92121 | -57.95870 | 5996 ft | 152 kts | 115° |
| 2026-05-05 14:37 | -51.92457 | -57.94350 | 5993 ft | 151 kts | 115° |
| 2026-05-05 14:37 | -51.92793 | -57.92838 | 5991 ft | 152 kts | 115° |
| 2026-05-05 14:37 | -51.93149 | -57.91227 | 5990 ft | 152 kts | 115° |
| 2026-05-05 14:38 | -51.93488 | -57.89694 | 5989 ft | 151 kts | 115° |
| 2026-05-05 14:38 | -51.93829 | -57.88148 | 5990 ft | 151 kts | 115° |
| 2026-05-05 14:38 | -51.94176 | -57.86577 | 5996 ft | 151 kts | 115° |
| 2026-05-05 14:38 | -51.94527 | -57.84986 | 5995 ft | 152 kts | 115° |
| 2026-05-05 14:39 | -51.94870 | -57.83430 | 5991 ft | 152 kts | 115° |
| 2026-05-05 14:39 | -51.95207 | -57.81900 | 5989 ft | 153 kts | 115° |
| 2026-05-05 14:39 | -51.95560 | -57.80299 | 5987 ft | 153 kts | 115° |
| 2026-05-05 14:39 | -51.95922 | -57.78650 | 5997 ft | 153 kts | 115° |
| 2026-05-05 14:40 | -51.96263 | -57.77092 | 5999 ft | 152 kts | 115° |
| 2026-05-05 14:40 | -51.96602 | -57.75549 | 5998 ft | 152 kts | 115° |
| 2026-05-05 14:40 | -51.96957 | -57.73939 | 5990 ft | 152 kts | 115° |
| 2026-05-05 14:40 | -51.97321 | -57.72282 | 5986 ft | 151 kts | 115° |
| 2026-05-05 14:41 | -51.97657 | -57.70746 | 5984 ft | 151 kts | 115° |
| 2026-05-05 14:41 | -51.97996 | -57.69204 | 5988 ft | 151 kts | 115° |
| 2026-05-05 14:41 | -51.98350 | -57.67592 | 5985 ft | 151 kts | 115° |
| 2026-05-05 14:41 | -51.98725 | -57.65877 | 5983 ft | 151 kts | 115° |
| 2026-05-05 14:42 | -51.99072 | -57.64292 | 5978 ft | 151 kts | 115° |
| 2026-05-05 14:42 | -51.99421 | -57.62694 | 5976 ft | 152 kts | 114° |
| 2026-05-05 14:42 | -51.99793 | -57.60989 | 5994 ft | 151 kts | 115° |
| 2026-05-05 14:42 | -52.00162 | -57.59291 | 6000 ft | 151 kts | 116° |
| 2026-05-05 14:43 | -52.00515 | -57.57676 | 5984 ft | 152 kts | 115° |
| 2026-05-05 14:43 | -52.00870 | -57.56048 | 5969 ft | 153 kts | 114° |
| 2026-05-05 14:43 | -52.01221 | -57.54434 | 5963 ft | 154 kts | 114° |
| 2026-05-05 14:43 | -52.01580 | -57.52780 | 5989 ft | 152 kts | 115° |
| 2026-05-05 14:44 | -52.01933 | -57.51146 | 5990 ft | 152 kts | 114° |
| 2026-05-05 14:44 | -52.02277 | -57.49558 | 5999 ft | 151 kts | 115° |
| 2026-05-05 14:44 | -52.02625 | -57.47955 | 5981 ft | 152 kts | 115° |
| 2026-05-05 14:44 | -52.02980 | -57.46309 | 5980 ft | 152 kts | 115° |
| 2026-05-05 14:45 | -52.03330 | -57.44701 | 5982 ft | 151 kts | 115° |
| 2026-05-05 14:45 | -52.03674 | -57.43105 | 5981 ft | 152 kts | 115° |
| 2026-05-05 14:45 | -52.04016 | -57.41519 | 5986 ft | 151 kts | 116° |
| 2026-05-05 14:45 | -52.04362 | -57.39922 | 5976 ft | 151 kts | 115° |
| 2026-05-05 14:46 | -52.04709 | -57.38311 | 5980 ft | 151 kts | 115° |
| 2026-05-05 14:46 | -52.05053 | -57.36717 | 5972 ft | 152 kts | 115° |
| 2026-05-05 14:46 | -52.05397 | -57.35122 | 5981 ft | 152 kts | 115° |
| 2026-05-05 14:46 | -52.05748 | -57.33494 | 5967 ft | 152 kts | 114° |
| 2026-05-05 14:47 | -52.06099 | -57.31860 | 5974 ft | 152 kts | 114° |
| 2026-05-05 14:47 | -52.06446 | -57.30245 | 5975 ft | 153 kts | 114° |
| 2026-05-05 14:47 | -52.06797 | -57.28617 | 5978 ft | 154 kts | 114° |
| 2026-05-05 14:47 | -52.07152 | -57.26957 | 5985 ft | 153 kts | 114° |
| 2026-05-05 14:48 | -52.07496 | -57.25353 | 5991 ft | 153 kts | 114° |
| 2026-05-05 14:48 | -52.07840 | -57.23739 | 5988 ft | 152 kts | 114° |
| 2026-05-05 14:48 | -52.08189 | -57.22113 | 5994 ft | 151 kts | 114° |
| 2026-05-05 14:48 | -52.08546 | -57.20446 | 5978 ft | 151 kts | 114° |
| 2026-05-05 14:49 | -52.08885 | -57.18858 | 5968 ft | 151 kts | 115° |
| 2026-05-05 14:49 | -52.09230 | -57.17244 | 5971 ft | 151 kts | 114° |
| 2026-05-05 14:49 | -52.09576 | -57.15626 | 5976 ft | 151 kts | 114° |
| 2026-05-05 14:49 | -52.09921 | -57.14007 | 5974 ft | 152 kts | 114° |
| 2026-05-05 14:50 | -52.10260 | -57.12413 | 5982 ft | 151 kts | 114° |
| 2026-05-05 14:50 | -52.10603 | -57.10789 | 5982 ft | 152 kts | 114° |
| 2026-05-05 14:50 | -52.10939 | -57.09196 | 5981 ft | 152 kts | 114° |
| 2026-05-05 14:50 | -52.11284 | -57.07564 | 5983 ft | 152 kts | 114° |
| 2026-05-05 14:51 | -52.11615 | -57.06001 | 5979 ft | 153 kts | 114° |
| 2026-05-05 14:51 | -52.11972 | -57.04310 | 5974 ft | 153 kts | 114° |
| 2026-05-05 14:51 | -52.12303 | -57.02743 | 5970 ft | 154 kts | 114° |
| 2026-05-05 14:51 | -52.12650 | -57.01102 | 5978 ft | 153 kts | 114° |
| 2026-05-05 14:52 | -52.12993 | -56.99485 | 5981 ft | 153 kts | 114° |
| 2026-05-05 14:52 | -52.13335 | -56.97861 | 5984 ft | 152 kts | 114° |
| 2026-05-05 14:52 | -52.13670 | -56.96269 | 5987 ft | 152 kts | 114° |
| 2026-05-05 14:52 | -52.14011 | -56.94654 | 5976 ft | 152 kts | 114° |
| 2026-05-05 14:53 | -52.14353 | -56.93031 | 5970 ft | 152 kts | 115° |
| 2026-05-05 14:53 | -52.14694 | -56.91409 | 5971 ft | 151 kts | 115° |
| 2026-05-05 14:53 | -52.15026 | -56.89829 | 5974 ft | 151 kts | 115° |
| 2026-05-05 14:53 | -52.15374 | -56.88188 | 5955 ft | 152 kts | 115° |
| 2026-05-05 14:54 | -52.15724 | -56.86521 | 5960 ft | 152 kts | 115° |
| 2026-05-05 14:54 | -52.16053 | -56.84961 | 5964 ft | 153 kts | 115° |
| 2026-05-05 14:54 | -52.16393 | -56.83343 | 5967 ft | 154 kts | 115° |
| 2026-05-05 14:54 | -52.16738 | -56.81693 | 5979 ft | 153 kts | 114° |
| 2026-05-05 14:55 | -52.17082 | -56.80053 | 5986 ft | 153 kts | 114° |
| 2026-05-05 14:55 | -52.17424 | -56.78416 | 5985 ft | 153 kts | 114° |
| 2026-05-05 14:55 | -52.17763 | -56.76800 | 5977 ft | 152 kts | 114° |
| 2026-05-05 14:55 | -52.18106 | -56.75154 | 5974 ft | 152 kts | 114° |
| 2026-05-05 14:56 | -52.18443 | -56.73543 | 5972 ft | 152 kts | 115° |
| 2026-05-05 14:56 | -52.18780 | -56.71929 | 5960 ft | 152 kts | 115° |
| 2026-05-05 14:56 | -52.19114 | -56.70327 | 5961 ft | 152 kts | 115° |
| 2026-05-05 14:56 | -52.19458 | -56.68675 | 5963 ft | 152 kts | 114° |
| 2026-05-05 14:57 | -52.19795 | -56.67057 | 5971 ft | 152 kts | 115° |
| 2026-05-05 14:57 | -52.20125 | -56.65469 | 5970 ft | 151 kts | 115° |
| 2026-05-05 14:57 | -52.20456 | -56.63874 | 5964 ft | 151 kts | 115° |
| 2026-05-05 14:57 | -52.20800 | -56.62217 | 5954 ft | 152 kts | 115° |
| 2026-05-05 14:58 | -52.21135 | -56.60607 | 5948 ft | 152 kts | 115° |
| 2026-05-05 14:58 | -52.21465 | -56.59020 | 5947 ft | 153 kts | 115° |
| 2026-05-05 14:58 | -52.21802 | -56.57392 | 5948 ft | 153 kts | 115° |
| 2026-05-05 14:58 | -52.22150 | -56.55711 | 5957 ft | 153 kts | 115° |
| 2026-05-05 14:59 | -52.22485 | -56.54092 | 5969 ft | 153 kts | 115° |
| 2026-05-05 14:59 | -52.22816 | -56.52490 | 5969 ft | 153 kts | 115° |
| 2026-05-05 14:59 | -52.23158 | -56.50835 | 5971 ft | 153 kts | 115° |
| 2026-05-05 14:59 | -52.23497 | -56.49188 | 5972 ft | 153 kts | 115° |
| 2026-05-05 15:00 | -52.23822 | -56.47617 | 5968 ft | 153 kts | 115° |
| 2026-05-05 15:00 | -52.24044 | -56.46538 | 5966 ft | 153 kts | 115° |
| 2026-05-05 15:00 | -52.24493 | -56.44355 | 5967 ft | 152 kts | 115° |
| 2026-05-05 15:00 | -52.24831 | -56.42712 | 5965 ft | 152 kts | 115° |
| 2026-05-05 15:01 | -52.25170 | -56.41063 | 5966 ft | 152 kts | 115° |
| 2026-05-05 15:01 | -52.25502 | -56.39436 | 5967 ft | 152 kts | 115° |
| 2026-05-05 15:01 | -52.25838 | -56.37802 | 5969 ft | 152 kts | 116° |
| 2026-05-05 15:01 | -52.26175 | -56.36156 | 5966 ft | 152 kts | 116° |
| 2026-05-05 15:02 | -52.26512 | -56.34516 | 5959 ft | 152 kts | 115° |
| 2026-05-05 15:02 | -52.26846 | -56.32886 | 5950 ft | 153 kts | 115° |
| 2026-05-05 15:02 | -52.27178 | -56.31272 | 5951 ft | 154 kts | 115° |
| 2026-05-05 15:02 | -52.27520 | -56.29599 | 5961 ft | 154 kts | 115° |
| 2026-05-05 15:03 | -52.27863 | -56.27915 | 5970 ft | 153 kts | 115° |
| 2026-05-05 15:03 | -52.28183 | -56.26349 | 5968 ft | 154 kts | 115° |
| 2026-05-05 15:03 | -52.28504 | -56.24779 | 5965 ft | 154 kts | 115° |
| 2026-05-05 15:03 | -52.28840 | -56.23130 | 5967 ft | 153 kts | 115° |
| 2026-05-05 15:04 | -52.29175 | -56.21483 | 5968 ft | 153 kts | 115° |
| 2026-05-05 15:04 | -52.29495 | -56.19912 | 5964 ft | 153 kts | 115° |
| 2026-05-05 15:04 | -52.29813 | -56.18348 | 5962 ft | 153 kts | 115° |
| 2026-05-05 15:04 | -52.30144 | -56.16715 | 5962 ft | 153 kts | 115° |
| 2026-05-05 15:05 | -52.30797 | -56.13495 | 5962 ft | 153 kts | 115° |
| 2026-05-05 15:05 | -52.31122 | -56.11891 | 5966 ft | 153 kts | 115° |
| 2026-05-05 15:05 | -52.31448 | -56.10274 | 5964 ft | 153 kts | 115° |
| 2026-05-05 15:06 | -52.31782 | -56.08627 | 5960 ft | 153 kts | 115° |
| 2026-05-05 15:06 | -52.32096 | -56.07076 | 5954 ft | 153 kts | 115° |
| 2026-05-05 15:06 | -52.32419 | -56.05474 | 5955 ft | 153 kts | 115° |
| 2026-05-05 15:06 | -52.32742 | -56.03870 | 5953 ft | 153 kts | 115° |
| 2026-05-05 15:07 | -52.33078 | -56.02208 | 5955 ft | 153 kts | 115° |
| 2026-05-05 15:07 | -52.33407 | -56.00581 | 5946 ft | 154 kts | 115° |
| 2026-05-05 15:07 | -52.33723 | -55.99009 | 5950 ft | 154 kts | 115° |
| 2026-05-05 15:07 | -52.34046 | -55.97401 | 5956 ft | 154 kts | 115° |
| 2026-05-05 15:08 | -52.34379 | -55.95739 | 5960 ft | 154 kts | 115° |
| 2026-05-05 15:08 | -52.34684 | -55.94212 | 5962 ft | 154 kts | 115° |
| 2026-05-05 15:08 | -52.34991 | -55.92678 | 5958 ft | 154 kts | 115° |
| 2026-05-05 15:08 | -52.35316 | -55.91053 | 5957 ft | 154 kts | 115° |
| 2026-05-05 15:09 | -52.35646 | -55.89407 | 5960 ft | 153 kts | 115° |
| 2026-05-05 15:09 | -52.35949 | -55.87895 | 5961 ft | 153 kts | 115° |
| 2026-05-05 15:09 | -52.36254 | -55.86369 | 5955 ft | 152 kts | 115° |
| 2026-05-05 15:09 | -52.36577 | -55.84755 | 5948 ft | 152 kts | 115° |
| 2026-05-05 15:10 | -52.36909 | -55.83095 | 5942 ft | 152 kts | 115° |
| 2026-05-05 15:10 | -52.37224 | -55.81514 | 5938 ft | 153 kts | 115° |
| 2026-05-05 15:10 | -52.37534 | -55.79961 | 5940 ft | 153 kts | 115° |
| 2026-05-05 15:10 | -52.37864 | -55.78302 | 5943 ft | 153 kts | 115° |
| 2026-05-05 15:11 | -52.38201 | -55.76611 | 5944 ft | 153 kts | 115° |
| 2026-05-05 15:11 | -52.38522 | -55.74989 | 5949 ft | 154 kts | 115° |
| 2026-05-05 15:11 | -52.38838 | -55.73399 | 5948 ft | 154 kts | 115° |
| 2026-05-05 15:11 | -52.39171 | -55.71717 | 5951 ft | 154 kts | 115° |
| 2026-05-05 15:12 | -52.39503 | -55.70043 | 5948 ft | 154 kts | 115° |
| 2026-05-05 15:12 | -52.39815 | -55.68465 | 5951 ft | 154 kts | 115° |
| 2026-05-05 15:12 | -52.40132 | -55.66861 | 5952 ft | 154 kts | 115° |
| 2026-05-05 15:12 | -52.40463 | -55.65189 | 5952 ft | 154 kts | 115° |
| 2026-05-05 15:13 | -52.40789 | -55.63538 | 5950 ft | 154 kts | 115° |
| 2026-05-05 15:13 | -52.41101 | -55.61957 | 5946 ft | 154 kts | 115° |
| 2026-05-05 15:13 | -52.41429 | -55.60293 | 5947 ft | 154 kts | 115° |
| 2026-05-05 15:13 | -52.41746 | -55.58686 | 5945 ft | 154 kts | 115° |
| 2026-05-05 15:14 | -52.42069 | -55.57041 | 5944 ft | 153 kts | 115° |
| 2026-05-05 15:14 | -52.42390 | -55.55415 | 5944 ft | 153 kts | 115° |
| 2026-05-05 15:14 | -52.42725 | -55.53712 | 5943 ft | 153 kts | 115° |
| 2026-05-05 15:14 | -52.43032 | -55.52145 | 5938 ft | 152 kts | 116° |
| 2026-05-05 15:15 | -52.43346 | -55.50546 | 5934 ft | 152 kts | 116° |
| 2026-05-05 15:15 | -52.43665 | -55.48925 | 5923 ft | 153 kts | 115° |
| 2026-05-05 15:15 | -52.43988 | -55.47275 | 5920 ft | 154 kts | 115° |
| 2026-05-05 15:15 | -52.44295 | -55.45704 | 5916 ft | 154 kts | 115° |
| 2026-05-05 15:16 | -52.44611 | -55.44089 | 5923 ft | 154 kts | 115° |
| 2026-05-05 15:16 | -52.44940 | -55.42406 | 5933 ft | 154 kts | 115° |
| 2026-05-05 15:16 | -52.45264 | -55.40744 | 5939 ft | 154 kts | 115° |
| 2026-05-05 15:16 | -52.45576 | -55.39146 | 5939 ft | 154 kts | 115° |
| 2026-05-05 15:17 | -52.45894 | -55.37510 | 5941 ft | 154 kts | 115° |
| 2026-05-05 15:17 | -52.46229 | -55.35789 | 5939 ft | 154 kts | 116° |
| 2026-05-05 15:17 | -52.46546 | -55.34158 | 5917 ft | 155 kts | 115° |
| 2026-05-05 15:17 | -52.46866 | -55.32528 | 5870 ft | 159 kts | 115° |
| 2026-05-05 15:18 | -52.47193 | -55.30847 | 5892 ft | 159 kts | 115° |
| 2026-05-05 15:18 | -52.47534 | -55.29090 | 5923 ft | 159 kts | 115° |
| 2026-05-05 15:18 | -52.47844 | -55.27488 | 5937 ft | 159 kts | 115° |
| 2026-05-05 15:18 | -52.48158 | -55.25869 | 5939 ft | 159 kts | 115° |
| 2026-05-05 15:19 | -52.48474 | -55.24233 | 5937 ft | 158 kts | 115° |
| 2026-05-05 15:19 | -52.48809 | -55.22504 | 5924 ft | 159 kts | 115° |
| 2026-05-05 15:19 | -52.49123 | -55.20881 | 5913 ft | 159 kts | 115° |
| 2026-05-05 15:19 | -52.49440 | -55.19247 | 5912 ft | 160 kts | 115° |
| 2026-05-05 15:20 | -52.49754 | -55.17618 | 5919 ft | 160 kts | 115° |
| 2026-05-05 15:20 | -52.50092 | -55.15859 | 5927 ft | 160 kts | 115° |
| 2026-05-05 15:20 | -52.50285 | -55.14854 | 5934 ft | 160 kts | 115° |